Time;durP1;ratioP1;P1;durP2;ratioP2;P2;SDS_P1;SDS_P2;PMS_P1;PMS_P2;Temp;Humidity;BMP_temperature;BMP_pressure;BME280_temperature;BME280_humidity;BME280_pressure;Samples;Min_cycle;Max_cycle;Signal;HPM_P1;HPM_P2
2021/12/04 00:00:00;;;;;;;3.17;2.00;;;2.70;88.70;;;;;;5002327;28;20145;-80
2021/12/04 00:02:26;;;;;;;3.60;1.85;;;2.70;88.70;;;;;;4989488;28;20029;-80
2021/12/04 00:04:53;;;;;;;3.53;2.08;;;2.70;88.80;;;;;;4969464;28;20514;-79
2021/12/04 00:07:22;;;;;;;2.75;2.20;;;2.70;88.80;;;;;;4997507;28;20052;-80
2021/12/04 00:09:50;;;;;;;4.75;2.40;;;2.70;88.80;;;;;;4985877;28;20028;-80
2021/12/04 00:12:16;;;;;;;4.25;2.15;;;2.70;88.90;;;;;;5009566;28;20043;-79
2021/12/04 00:14:42;;;;;;;7.00;2.92;;;2.70;88.90;;;;;;5003220;28;20065;-79
2021/12/04 00:17:08;;;;;;;2.40;2.15;;;2.70;88.90;;;;;;4963589;28;20635;-80
2021/12/04 00:19:33;;;;;;;4.78;3.05;;;2.70;89.00;;;;;;4986358;28;21111;-79
2021/12/04 00:21:59;;;;;;;3.75;2.25;;;2.70;89.10;;;;;;4994231;28;20037;-80
2021/12/04 00:24:25;;;;;;;6.93;3.42;;;2.70;89.10;;;;;;4984831;28;20041;-80
2021/12/04 00:26:51;;;;;;;4.90;2.72;;;2.70;89.00;;;;;;5002689;28;20512;-81
2021/12/04 00:29:17;;;;;;;7.13;2.60;;;2.70;89.10;;;;;;4988305;28;20029;-80
2021/12/04 00:31:50;;;;;;;4.90;2.50;;;2.60;89.10;;;;;;4990237;28;20667;-80
2021/12/04 00:34:17;;;;;;;11.25;5.35;;;2.60;89.20;;;;;;5006102;28;20120;-78
2021/12/04 00:50:05;;;;;;;7.00;3.88;;;2.60;89.30;;;;;;5020169;28;20102;-80
2021/12/04 00:52:31;;;;;;;12.07;5.03;;;2.60;90.00;;;;;;5001323;28;20121;-80
2021/12/04 00:54:56;;;;;;;8.48;4.20;;;2.60;89.30;;;;;;4987622;28;20037;-80
2021/12/04 00:57:22;;;;;;;6.70;3.22;;;2.60;89.30;;;;;;5002246;28;20069;-80
2021/12/04 00:59:47;;;;;;;4.72;2.72;;;2.60;89.40;;;;;;4990679;28;20037;-80
2021/12/04 01:02:13;;;;;;;4.03;2.63;;;2.60;89.30;;;;;;4993056;28;20033;-80
2021/12/04 01:04:38;;;;;;;3.90;2.75;;;2.60;89.40;;;;;;4985549;28;20117;-81
2021/12/04 01:07:04;;;;;;;3.95;2.38;;;2.60;89.40;;;;;;4986229;28;20101;-80
2021/12/04 01:09:30;;;;;;;4.47;2.60;;;2.60;89.50;;;;;;5000672;28;20038;-80
2021/12/04 01:11:55;;;;;;;3.28;2.25;;;2.70;89.50;;;;;;5001405;28;20037;-80
2021/12/04 01:14:24;;;;;;;4.53;2.30;;;2.70;89.50;;;;;;4981882;28;20512;-81
2021/12/04 01:16:50;;;;;;;2.65;1.90;;;2.70;89.60;;;;;;5000546;28;20029;-80
2021/12/04 01:19:18;;;;;;;2.45;2.13;;;2.70;89.60;;;;;;4967916;28;20045;-80
2021/12/04 01:21:43;;;;;;;4.10;2.35;;;2.70;89.60;;;;;;4994670;28;20130;-79
2021/12/04 01:24:09;;;;;;;1.83;1.50;;;2.70;89.60;;;;;;4992305;28;20133;-79
2021/12/04 01:26:34;;;;;;;2.97;2.00;;;2.70;89.60;;;;;;4999448;28;20037;-79
2021/12/04 01:29:00;;;;;;;3.22;1.80;;;2.70;89.60;;;;;;4987039;28;20030;-81
2021/12/04 01:31:26;;;;;;;4.32;2.10;;;2.70;89.60;;;;;;4983265;28;20030;-79
2021/12/04 01:33:51;;;;;;;2.67;2.10;;;2.70;89.60;;;;;;4999876;28;20111;-80
2021/12/04 01:36:17;;;;;;;4.47;1.98;;;2.70;89.60;;;;;;5003671;28;20052;-79
2021/12/04 01:38:42;;;;;;;2.85;1.92;;;2.70;89.70;;;;;;5002894;28;20029;-80
2021/12/04 01:41:08;;;;;;;2.38;1.75;;;2.70;89.70;;;;;;4996273;28;20026;-79
2021/12/04 01:43:33;;;;;;;3.10;1.75;;;2.70;89.70;;;;;;4966140;28;20034;-78
2021/12/04 01:45:59;;;;;;;2.20;1.80;;;2.70;89.70;;;;;;5019200;28;20049;-80
2021/12/04 01:48:25;;;;;;;3.25;2.17;;;2.70;89.70;;;;;;4969913;28;20136;-80
2021/12/04 01:50:52;;;;;;;2.65;1.98;;;2.70;89.80;;;;;;4981865;28;20460;-80
2021/12/04 01:53:18;;;;;;;3.72;2.60;;;2.70;89.80;;;;;;4986823;28;20037;-79
2021/12/04 01:55:43;;;;;;;2.95;2.47;;;2.70;89.80;;;;;;4984716;28;20048;-79
2021/12/04 01:58:09;;;;;;;3.67;2.33;;;2.70;89.90;;;;;;4967600;28;20060;-80
2021/12/04 02:00:36;;;;;;;3.50;2.40;;;2.70;89.90;;;;;;4998690;28;20049;-78
2021/12/04 02:03:07;;;;;;;3.28;2.55;;;2.70;89.90;;;;;;4966775;28;20160;-80
2021/12/04 02:05:33;;;;;;;3.05;2.28;;;2.70;89.90;;;;;;4985465;28;20029;-79
2021/12/04 02:07:59;;;;;;;4.95;2.78;;;2.70;89.90;;;;;;4992183;28;20034;-78
2021/12/04 02:10:25;;;;;;;4.18;2.70;;;2.70;89.90;;;;;;4983492;28;20026;-79
2021/12/04 02:12:50;;;;;;;3.80;2.58;;;2.70;90.00;;;;;;4984874;28;20124;-80
2021/12/04 02:15:16;;;;;;;5.60;2.75;;;2.70;89.90;;;;;;4980168;28;20163;-79
2021/12/04 02:17:45;;;;;;;6.70;2.67;;;2.70;90.00;;;;;;4981250;28;20038;-80
2021/12/04 02:20:15;;;;;;;4.78;2.55;;;2.70;90.00;;;;;;5020807;28;20044;-80
2021/12/04 02:22:40;;;;;;;4.80;2.92;;;2.70;90.00;;;;;;5009008;28;20156;-79
2021/12/04 02:25:08;;;;;;;2.75;2.40;;;2.70;90.00;;;;;;4986272;28;20105;-80
2021/12/04 02:27:34;;;;;;;5.55;3.13;;;2.70;90.00;;;;;;4980651;28;20041;-80
2021/12/04 02:30:00;;;;;;;3.95;2.63;;;2.70;90.00;;;;;;5003119;28;20025;-79
2021/12/04 02:32:26;;;;;;;5.65;2.10;;;2.70;90.00;;;;;;4997691;28;20496;-80
2021/12/04 02:34:51;;;;;;;5.15;2.72;;;2.70;90.00;;;;;;5000896;28;20620;-78
2021/12/04 02:37:17;;;;;;;4.68;2.83;;;2.70;90.00;;;;;;4979036;28;20044;-79
2021/12/04 02:39:46;;;;;;;4.78;2.72;;;2.70;90.00;;;;;;4979797;28;20041;-79
2021/12/04 02:42:21;;;;;;;5.20;2.65;;;2.70;90.10;;;;;;4983440;28;20431;-79
2021/12/04 02:44:48;;;;;;;3.90;3.17;;;2.70;90.10;;;;;;5014044;28;20076;-80
2021/12/04 02:47:13;;;;;;;4.78;3.25;;;2.70;90.40;;;;;;4972153;28;20046;-80
2021/12/04 02:49:39;;;;;;;4.00;3.25;;;2.70;90.10;;;;;;4968494;28;20416;-78
2021/12/04 02:52:06;;;;;;;4.07;2.92;;;2.70;90.10;;;;;;4985382;28;20528;-80
2021/12/04 02:54:31;;;;;;;2.70;2.42;;;2.70;90.10;;;;;;4945782;28;20041;-80
2021/12/04 02:56:57;;;;;;;4.85;3.45;;;2.70;90.10;;;;;;4972285;28;20030;-80
2021/12/04 02:59:23;;;;;;;4.18;3.33;;;2.60;90.10;;;;;;4969646;28;20045;-80
2021/12/04 03:01:52;;;;;;;4.07;3.20;;;2.70;90.10;;;;;;4966669;28;20045;-79
2021/12/04 03:04:18;;;;;;;5.57;3.78;;;2.60;90.10;;;;;;4984262;28;20045;-80
2021/12/04 03:06:46;;;;;;;6.82;3.78;;;2.60;90.10;;;;;;4976355;28;20021;-80
2021/12/04 03:09:12;;;;;;;7.65;3.50;;;2.60;90.20;;;;;;4970619;28;20030;-78
2021/12/04 03:11:38;;;;;;;5.28;3.63;;;2.60;90.20;;;;;;4956115;28;20030;-79
2021/12/04 03:14:03;;;;;;;4.65;3.50;;;2.60;90.60;;;;;;4955515;28;20133;-80
2021/12/04 03:16:29;;;;;;;5.85;3.47;;;2.50;90.20;;;;;;4971329;28;20042;-80
2021/12/04 03:18:55;;;;;;;6.03;3.65;;;2.50;90.20;;;;;;4950884;28;20472;-79
2021/12/04 03:21:21;;;;;;;6.82;4.40;;;2.50;90.30;;;;;;4965374;28;20093;-80
2021/12/04 03:23:56;;;;;;;5.47;4.10;;;2.50;90.30;;;;;;4951409;28;20045;-80
2021/12/04 03:26:21;;;;;;;5.55;3.80;;;2.50;90.30;;;;;;4983416;28;20044;-80
2021/12/04 03:28:48;;;;;;;4.57;3.33;;;2.50;90.30;;;;;;4968775;28;20034;-80
2021/12/04 03:31:20;;;;;;;3.85;2.97;;;2.50;90.30;;;;;;4982900;28;20033;-79
2021/12/04 03:41:59;;;;;;;4.30;3.03;;;2.50;90.40;;;;;;4963481;28;20049;-79
2021/12/04 03:44:24;;;;;;;4.20;3.30;;;2.50;90.40;;;;;;4966095;28;20038;-79
2021/12/04 03:46:50;;;;;;;3.65;2.90;;;2.50;90.40;;;;;;4979679;28;20049;-80
2021/12/04 03:49:16;;;;;;;4.43;3.33;;;2.50;90.40;;;;;;5000943;28;20296;-80
2021/12/04 03:51:41;;;;;;;5.07;3.55;;;2.50;90.40;;;;;;4976054;28;20038;-79
2021/12/04 03:54:07;;;;;;;5.63;3.60;;;2.50;90.40;;;;;;4967885;28;20042;-80
2021/12/04 03:56:33;;;;;;;6.53;3.88;;;2.50;90.50;;;;;;4985403;28;20125;-79
2021/12/04 03:58:58;;;;;;;6.22;3.85;;;2.50;90.50;;;;;;5002630;28;20842;-78
2021/12/04 04:01:24;;;;;;;6.30;4.50;;;2.50;90.50;;;;;;4932397;28;20034;-79
2021/12/04 04:03:49;;;;;;;7.30;4.53;;;2.50;90.90;;;;;;4969251;28;20033;-80
2021/12/04 04:06:15;;;;;;;7.55;4.63;;;2.40;90.50;;;;;;4984041;28;20092;-80
2021/12/04 04:08:41;;;;;;;6.60;4.47;;;2.40;90.50;;;;;;4985185;28;20109;-79
2021/12/04 04:11:06;;;;;;;8.05;5.22;;;2.40;90.50;;;;;;4994629;28;20778;-77
2021/12/04 04:13:32;;;;;;;7.45;5.15;;;2.40;90.50;;;;;;4999893;28;20458;-78
2021/12/04 04:15:59;;;;;;;6.63;4.07;;;2.40;90.60;;;;;;4966322;28;20723;-79
2021/12/04 04:18:25;;;;;;;5.70;4.30;;;2.40;90.60;;;;;;4966870;28;20034;-80
2021/12/04 04:20:51;;;;;;;5.50;4.07;;;2.30;90.60;;;;;;4984394;28;20376;-79
2021/12/04 04:23:16;;;;;;;5.65;3.78;;;2.30;90.60;;;;;;4986220;28;20054;-80
2021/12/04 04:25:42;;;;;;;5.55;3.80;;;2.30;90.60;;;;;;4992324;28;20065;-79
2021/12/04 04:28:07;;;;;;;5.28;4.10;;;2.30;90.60;;;;;;4963815;28;20558;-79
2021/12/04 04:30:33;;;;;;;5.57;3.95;;;2.30;90.70;;;;;;4958321;28;20041;-80
2021/12/04 04:33:00;;;;;;;6.90;4.18;;;2.30;90.70;;;;;;4970935;28;20658;-80
2021/12/04 04:35:27;;;;;;;4.53;3.70;;;2.30;90.70;;;;;;4990359;28;20056;-80
2021/12/04 04:38:15;;;;;;;4.97;3.70;;;2.30;90.70;;;;;;5000177;28;20037;-80
2021/12/04 05:00:01;;;;;;;5.32;4.10;;;2.30;90.80;;;;;;4978299;28;20062;-80
2021/12/04 05:10:02;;;;;;;5.15;3.92;;;2.30;90.80;;;;;;4977954;28;20034;-80
2021/12/04 05:11:03;;;;;;;11.48;8.70;;;2.30;90.80;;;;;;4977813;28;20052;-78
2021/12/04 05:13:29;;;;;;;12.25;9.15;;;2.30;90.80;;;;;;4953421;28;20057;-79
2021/12/04 05:15:59;;;;;;;9.70;7.88;;;2.30;90.90;;;;;;4963109;28;20038;-78
2021/12/04 05:21:03;;;;;;;8.05;5.88;;;2.30;90.90;;;;;;4965895;28;20034;-78
2021/12/04 05:23:29;;;;;;;7.47;5.22;;;2.30;90.90;;;;;;4979467;28;20057;-78
2021/12/04 05:25:54;;;;;;;5.72;4.35;;;2.30;90.90;;;;;;4973576;28;20690;-78
2021/12/04 05:28:20;;;;;;;5.15;3.88;;;2.30;90.90;;;;;;4984588;28;20122;-78
2021/12/04 05:30:45;;;;;;;5.88;4.30;;;2.30;91.30;;;;;;4983811;28;20034;-78
2021/12/04 05:33:11;;;;;;;6.00;4.43;;;2.30;90.90;;;;;;4979988;28;20137;-79
2021/12/04 05:35:36;;;;;;;4.32;3.33;;;2.30;90.90;;;;;;4964327;28;20120;-78
2021/12/04 05:38:02;;;;;;;5.00;3.65;;;2.30;90.90;;;;;;4982790;28;20096;-78
2021/12/04 05:40:27;;;;;;;5.38;3.92;;;2.30;90.90;;;;;;4986768;28;20137;-79
2021/12/04 05:43:00;;;;;;;5.82;4.38;;;2.30;91.00;;;;;;4939460;28;20054;-78
2021/12/04 05:45:26;;;;;;;4.55;3.65;;;2.30;91.00;;;;;;4943139;28;20117;-79
2021/12/04 05:48:00;;;;;;;4.32;3.33;;;2.30;91.00;;;;;;5006200;28;20111;-78
2021/12/04 05:53:04;;;;;;;4.03;3.63;;;2.20;91.30;;;;;;4971027;28;20033;-78
2021/12/04 05:55:32;;;;;;;4.03;3.60;;;2.20;91.00;;;;;;4978901;28;20117;-78
2021/12/04 05:57:57;;;;;;;4.03;3.42;;;2.20;91.00;;;;;;4987086;28;20049;-79
2021/12/04 06:00:24;;;;;;;3.63;3.10;;;2.20;91.00;;;;;;4971913;28;20034;-78
2021/12/04 06:02:49;;;;;;;3.53;3.17;;;2.20;91.00;;;;;;4976497;28;20093;-79
2021/12/04 06:05:15;;;;;;;4.10;3.22;;;2.20;91.10;;;;;;4986227;28;20057;-79
2021/12/04 06:07:41;;;;;;;4.68;3.65;;;2.20;91.40;;;;;;5006121;28;20034;-79
2021/12/04 06:10:07;;;;;;;5.13;3.88;;;2.20;91.10;;;;;;4966708;28;20034;-79
2021/12/04 06:12:32;;;;;;;4.13;3.33;;;2.20;91.10;;;;;;4982032;28;20038;-79
2021/12/04 06:14:58;;;;;;;4.07;3.58;;;2.20;91.10;;;;;;5016143;28;20041;-79
2021/12/04 06:17:25;;;;;;;4.32;3.45;;;2.20;91.10;;;;;;5013192;28;20307;-79
2021/12/04 06:22:38;;;;;;;4.00;3.20;;;2.10;91.10;;;;;;4995595;28;20056;-78
2021/12/04 06:25:05;;;;;;;5.30;3.47;;;2.10;91.10;;;;;;4979102;28;20113;-79
2021/12/04 06:27:31;;;;;;;4.13;3.33;;;2.20;91.20;;;;;;5005234;28;20038;-80
2021/12/04 06:29:56;;;;;;;7.22;4.72;;;2.20;91.20;;;;;;4976154;28;20058;-80
2021/12/04 06:32:22;;;;;;;4.88;3.70;;;2.20;91.20;;;;;;4992885;28;20041;-80
2021/12/04 06:34:48;;;;;;;3.95;3.40;;;2.20;91.20;;;;;;4980502;28;20041;-81
2021/12/04 06:37:14;;;;;;;4.00;3.35;;;2.20;91.20;;;;;;4998138;28;20056;-79
2021/12/04 06:39:40;;;;;;;4.65;3.83;;;2.20;91.30;;;;;;4976404;28;20383;-80
2021/12/04 06:42:06;;;;;;;3.65;3.10;;;2.10;91.20;;;;;;4986798;28;20057;-79
2021/12/04 06:44:32;;;;;;;4.57;3.20;;;2.10;91.20;;;;;;4997795;28;20060;-80
2021/12/04 06:46:57;;;;;;;5.10;3.70;;;2.10;91.20;;;;;;4988305;28;20039;-78
2021/12/04 06:49:30;;;;;;;4.10;3.33;;;2.20;91.30;;;;;;4982126;28;20042;-80
2021/12/04 06:51:59;;;;;;;5.90;3.63;;;2.20;91.30;;;;;;4979569;28;20501;-79
2021/12/04 06:54:53;;;;;;;3.83;3.00;;;2.20;91.30;;;;;;4984325;28;20101;-79
2021/12/04 06:57:13;;;;;;;6.15;3.97;;;2.10;91.30;;;;;;4972644;28;20034;-79
2021/12/04 06:59:40;;;;;;;4.95;3.53;;;2.20;91.30;;;;;;4980820;28;20057;-80
2021/12/04 07:02:06;;;;;;;5.50;3.75;;;2.20;91.30;;;;;;4960835;28;20034;-80
2021/12/04 07:04:35;;;;;;;5.45;4.00;;;2.20;91.30;;;;;;4978877;28;20030;-80
2021/12/04 07:07:04;;;;;;;5.93;4.30;;;2.20;91.30;;;;;;5001600;28;20037;-80
2021/12/04 07:09:29;;;;;;;5.88;4.25;;;2.20;91.30;;;;;;4984275;28;20051;-80
2021/12/04 07:11:55;;;;;;;6.32;4.65;;;2.20;91.30;;;;;;4961741;28;20039;-79
2021/12/04 07:14:20;;;;;;;7.60;5.13;;;2.20;91.30;;;;;;4988730;28;20030;-78
2021/12/04 07:16:47;;;;;;;8.80;5.72;;;2.20;91.30;;;;;;4965641;28;20065;-80
2021/12/04 07:19:12;;;;;;;6.85;5.07;;;2.20;91.30;;;;;;5002637;28;20034;-78
2021/12/04 07:21:38;;;;;;;7.03;4.63;;;2.20;91.30;;;;;;4959997;28;20035;-78
2021/12/04 07:24:04;;;;;;;10.35;6.60;;;2.20;91.40;;;;;;4970299;28;20042;-78
2021/12/04 07:26:30;;;;;;;7.05;4.88;;;2.30;91.40;;;;;;4970507;28;20030;-79
2021/12/04 07:28:55;;;;;;;9.65;5.50;;;2.30;91.40;;;;;;4989100;28;20100;-79
2021/12/04 07:31:21;;;;;;;10.70;6.57;;;2.30;91.40;;;;;;4965787;28;20055;-78
2021/12/04 07:33:46;;;;;;;18.58;9.30;;;2.20;91.40;;;;;;4952609;28;20381;-79
2021/12/04 07:36:12;;;;;;;10.27;6.32;;;2.30;91.40;;;;;;4972075;28;20038;-78
2021/12/04 07:38:37;;;;;;;14.77;7.80;;;2.30;91.40;;;;;;4983248;28;20041;-80
2021/12/04 07:41:03;;;;;;;16.33;10.20;;;2.30;91.40;;;;;;4986532;28;20038;-78
2021/12/04 07:43:29;;;;;;;13.77;7.97;;;2.30;91.40;;;;;;4968804;28;20041;-79
2021/12/04 07:45:55;;;;;;;14.95;8.50;;;2.30;91.40;;;;;;4956679;28;20470;-78
2021/12/04 07:48:20;;;;;;;16.02;8.18;;;2.30;91.40;;;;;;4998089;28;20544;-78
2021/12/04 07:50:46;;;;;;;12.68;7.55;;;2.30;91.40;;;;;;4958804;28;20041;-78
2021/12/04 07:53:11;;;;;;;12.55;7.90;;;2.30;91.40;;;;;;4982224;28;20037;-79
2021/12/04 07:55:37;;;;;;;11.90;7.63;;;2.30;91.40;;;;;;4995660;28;20114;-79
2021/12/04 07:58:03;;;;;;;12.15;8.00;;;2.30;91.40;;;;;;4992914;28;20120;-79
2021/12/04 08:00:28;;;;;;;12.23;7.38;;;2.30;91.40;;;;;;4976679;28;20038;-78
2021/12/04 08:02:54;;;;;;;11.60;7.43;;;2.30;91.40;;;;;;4992877;28;20034;-79
2021/12/04 08:05:19;;;;;;;12.45;8.13;;;2.30;91.40;;;;;;4992811;28;20046;-78
2021/12/04 08:07:45;;;;;;;12.07;7.95;;;2.30;91.80;;;;;;5000182;28;20058;-79
2021/12/04 08:10:12;;;;;;;13.27;7.70;;;2.30;91.40;;;;;;4974002;28;20049;-79
2021/12/04 08:12:38;;;;;;;12.80;8.38;;;2.30;91.40;;;;;;4949956;28;20042;-79
2021/12/04 08:15:05;;;;;;;13.63;8.93;;;2.30;91.50;;;;;;4998838;28;20069;-79
2021/12/04 08:17:30;;;;;;;13.70;8.77;;;2.30;91.50;;;;;;4947515;28;20093;-79
2021/12/04 08:19:56;;;;;;;10.23;7.13;;;2.30;91.50;;;;;;4995274;28;20563;-79
2021/12/04 08:22:21;;;;;;;11.85;7.80;;;2.30;91.50;;;;;;4986968;28;20133;-78
2021/12/04 08:24:48;;;;;;;9.63;6.55;;;2.40;91.50;;;;;;4988103;28;20494;-78
2021/12/04 08:27:14;;;;;;;9.00;5.60;;;2.40;91.50;;;;;;4979578;28;20034;-79
2021/12/04 08:29:40;;;;;;;7.85;5.35;;;2.40;91.50;;;;;;4957865;28;20099;-79
2021/12/04 08:32:06;;;;;;;7.22;5.30;;;2.40;91.50;;;;;;5013392;28;20022;-79
2021/12/04 08:34:31;;;;;;;8.07;5.97;;;2.40;91.50;;;;;;4942516;28;20038;-79
2021/12/04 08:36:57;;;;;;;7.47;5.45;;;2.40;91.50;;;;;;4954008;28;20746;-79
2021/12/04 08:39:22;;;;;;;8.82;5.38;;;2.40;91.50;;;;;;4997947;28;20491;-79
2021/12/04 08:41:48;;;;;;;7.57;5.25;;;2.40;91.50;;;;;;4998149;28;20625;-79
2021/12/04 08:44:14;;;;;;;7.68;5.30;;;2.40;91.50;;;;;;5008217;28;20032;-79
2021/12/04 08:46:40;;;;;;;9.23;6.05;;;2.50;91.60;;;;;;5013104;28;20041;-79
2021/12/04 08:49:06;;;;;;;9.48;6.38;;;2.50;91.50;;;;;;5005208;28;20179;-78
2021/12/04 08:51:32;;;;;;;15.50;8.80;;;2.50;91.60;;;;;;4987353;28;20057;-79
2021/12/04 08:53:58;;;;;;;10.95;6.45;;;2.50;91.60;;;;;;4995499;28;20061;-78
2021/12/04 08:56:23;;;;;;;22.42;13.02;;;2.50;91.60;;;;;;4968443;28;20126;-78
2021/12/04 08:58:49;;;;;;;19.20;11.43;;;2.60;91.60;;;;;;4996934;28;20099;-78
2021/12/04 09:01:23;;;;;;;16.92;9.73;;;2.60;91.60;;;;;;4997631;28;20048;-79
2021/12/04 09:03:50;;;;;;;22.00;11.07;;;2.60;91.60;;;;;;4989992;28;20442;-79
2021/12/04 09:06:16;;;;;;;26.13;15.48;;;2.60;91.60;;;;;;4958326;28;20048;-79
2021/12/04 09:08:42;;;;;;;23.17;12.43;;;2.60;91.60;;;;;;5002160;28;20088;-78
2021/12/04 09:11:14;;;;;;;17.90;10.80;;;2.60;91.60;;;;;;4991680;28;20038;-79
2021/12/04 09:13:40;;;;;;;17.70;10.80;;;2.60;91.60;;;;;;4986384;28;20030;-79
2021/12/04 09:16:06;;;;;;;20.58;10.23;;;2.60;91.60;;;;;;4993679;28;20092;-78
2021/12/04 09:18:32;;;;;;;22.17;11.43;;;2.60;91.60;;;;;;4995796;28;20034;-77
2021/12/04 09:20:57;;;;;;;25.77;14.30;;;2.70;91.60;;;;;;5003486;28;20048;-79
2021/12/04 09:23:29;;;;;;;22.98;12.45;;;2.70;91.60;;;;;;4994913;28;20408;-80
2021/12/04 09:25:59;;;;;;;30.10;15.05;;;2.70;91.60;;;;;;4986762;28;20103;-79
2021/12/04 09:28:40;;;;;;;32.55;17.50;;;2.70;91.60;;;;;;4979331;28;20451;-78
2021/12/04 10:14:07;;;;;;;15.45;9.15;;;2.90;91.60;;;;;;4990510;28;20033;-79
2021/12/04 10:21:54;;;;;;;14.80;8.70;;;3.00;91.60;;;;;;4989761;28;20483;-79
2021/12/04 10:32:49;;;;;;;11.85;7.38;;;3.00;91.60;;;;;;5005387;28;20758;-80
2021/12/04 10:35:17;;;;;;;14.02;8.25;;;3.00;91.60;;;;;;5006612;28;20044;-81
2021/12/04 10:38:05;;;;;;;13.35;7.93;;;3.00;91.60;;;;;;5000659;28;20034;-80
2021/12/04 10:40:40;;;;;;;12.63;7.72;;;3.10;91.60;;;;;;4972872;28;20049;-80
2021/12/04 10:43:10;;;;;;;15.32;9.18;;;3.00;91.60;;;;;;4977460;28;20034;-80
2021/12/04 10:45:38;;;;;;;13.55;8.48;;;3.10;91.60;;;;;;4990646;28;20030;-79
2021/12/04 10:48:09;;;;;;;44.85;17.90;;;3.10;91.60;;;;;;5002556;28;20173;-81
2021/12/04 10:50:53;;;;;;;32.25;15.43;;;3.10;91.60;;;;;;4982129;28;20034;-80
2021/12/04 10:53:25;;;;;;;16.67;10.23;;;3.10;91.60;;;;;;4989077;28;20038;-80
2021/12/04 10:58:42;;;;;;;14.25;8.07;;;3.10;91.60;;;;;;4983595;28;20035;-79
2021/12/04 11:01:41;;;;;;;17.10;9.55;;;3.10;91.50;;;;;;4994685;28;20032;-79
2021/12/04 11:04:16;;;;;;;22.80;11.25;;;3.10;91.60;;;;;;5010164;28;20033;-80
2021/12/04 11:24:17;;;;;;;16.58;9.68;;;3.10;91.60;;;;;;4983687;28;20506;-80
2021/12/04 11:40:53;;;;;;;19.85;11.30;;;3.10;91.60;;;;;;5001713;28;20044;-81
2021/12/04 11:43:21;;;;;;;19.17;10.10;;;3.10;91.60;;;;;;4976797;28;20128;-80
2021/12/04 11:48:36;;;;;;;16.58;9.43;;;3.10;91.60;;;;;;4980932;28;20121;-80
2021/12/04 11:51:02;;;;;;;16.45;9.68;;;3.10;91.70;;;;;;4952608;28;20116;-81
2021/12/04 11:53:30;;;;;;;14.32;8.57;;;3.10;91.60;;;;;;4998771;28;20048;-79
2021/12/04 11:55:56;;;;;;;15.18;9.30;;;3.20;91.70;;;;;;4976253;28;20038;-79
2021/12/04 11:58:31;;;;;;;16.63;9.43;;;3.10;91.70;;;;;;4999262;28;20044;-81
2021/12/04 12:01:02;;;;;;;14.65;8.98;;;3.20;91.70;;;;;;5018179;28;20410;-79
2021/12/04 12:03:34;;;;;;;14.43;8.68;;;3.20;91.70;;;;;;4990934;28;20682;-80
2021/12/04 12:06:08;;;;;;;13.57;8.85;;;3.20;91.70;;;;;;4994216;28;20037;-80
2021/12/04 12:08:38;;;;;;;15.77;9.07;;;3.20;91.70;;;;;;4972741;28;20040;-80
2021/12/04 12:11:09;;;;;;;16.43;9.53;;;3.20;91.70;;;;;;4979966;28;20051;-81
2021/12/04 12:13:44;;;;;;;15.93;9.25;;;3.20;91.70;;;;;;4967228;28;20635;-81
2021/12/04 12:16:17;;;;;;;13.07;7.65;;;3.20;91.80;;;;;;4973152;28;20140;-80
2021/12/04 12:19:00;;;;;;;16.10;8.02;;;3.20;91.70;;;;;;5008453;28;20029;-80
2021/12/04 12:21:48;;;;;;;16.75;9.48;;;3.20;91.80;;;;;;5023775;28;20033;-80
2021/12/04 12:27:13;;;;;;;16.70;9.73;;;3.20;91.70;;;;;;5011607;28;20487;-78
2021/12/04 12:33:10;;;;;;;16.05;9.15;;;3.20;91.80;;;;;;4996268;28;20036;-80
2021/12/04 12:38:33;;;;;;;12.93;7.68;;;3.20;91.70;;;;;;4995372;28;20271;-81
2021/12/04 12:41:10;;;;;;;10.85;7.15;;;3.20;91.70;;;;;;4990795;28;20129;-80
2021/12/04 12:44:01;;;;;;;10.73;6.78;;;3.20;91.80;;;;;;4980096;28;20500;-79
2021/12/04 12:46:33;;;;;;;;;;;3.20;91.80;;;;;;4993200;28;20045;-80
2021/12/04 12:48:59;;;;;;;12.70;7.38;;;3.20;91.70;;;;;;5023414;28;19923;-81
2021/12/04 12:51:35;;;;;;;11.98;7.05;;;3.20;91.70;;;;;;4972213;28;20116;-80
2021/12/04 12:54:03;;;;;;;11.00;6.43;;;3.20;91.70;;;;;;5022120;28;20045;-79
2021/12/04 12:56:30;;;;;;;11.02;6.72;;;3.20;91.80;;;;;;4967614;28;20132;-80
2021/12/04 13:12:55;;;;;;;10.05;6.63;;;3.20;91.80;;;;;;5004597;28;20506;-80
2021/12/04 13:15:36;;;;;;;9.57;6.25;;;3.20;91.80;;;;;;5002007;28;20108;-81
2021/12/04 13:18:17;;;;;;;9.52;6.13;;;3.20;91.80;;;;;;4959165;28;20061;-80
2021/12/04 13:20:43;;;;;;;8.52;5.68;;;3.20;91.80;;;;;;4988479;28;20099;-81
2021/12/04 13:23:13;;;;;;;9.20;5.82;;;3.20;91.80;;;;;;5003567;28;20041;-81
2021/12/04 13:25:47;;;;;;;10.93;6.53;;;3.20;91.80;;;;;;4954789;28;20454;-81
2021/12/04 13:30:44;;;;;;;11.65;7.03;;;3.20;91.90;;;;;;5016260;28;20030;-81
2021/12/04 13:33:10;;;;;;;13.85;8.77;;;3.20;91.90;;;;;;4983748;28;20119;-80
2021/12/04 13:35:36;;;;;;;9.95;6.30;;;3.20;91.90;;;;;;4988584;28;20514;-80
2021/12/04 13:38:03;;;;;;;13.13;7.40;;;3.20;91.90;;;;;;4968959;28;20492;-81
2021/12/04 13:40:29;;;;;;;14.80;7.75;;;3.20;91.90;;;;;;4995514;28;20042;-80
2021/12/04 13:42:54;;;;;;;10.85;6.70;;;3.20;91.90;;;;;;5003487;28;20041;-80
2021/12/04 13:45:20;;;;;;;9.60;6.22;;;3.20;91.90;;;;;;4996299;28;20038;-81
2021/12/04 13:47:54;;;;;;;11.50;7.07;;;3.20;91.90;;;;;;4944388;28;20611;-80
2021/12/04 13:53:13;;;;;;;8.90;5.53;;;3.20;91.90;;;;;;4975708;28;21007;-79
2021/12/04 13:55:39;;;;;;;7.68;5.47;;;3.20;91.90;;;;;;4969137;28;20041;-80
2021/12/04 13:58:05;;;;;;;9.90;5.70;;;3.20;91.90;;;;;;4968165;28;20416;-81
2021/12/04 14:00:31;;;;;;;8.48;5.63;;;3.10;91.90;;;;;;4941826;28;20086;-80
2021/12/04 14:02:56;;;;;;;8.70;6.10;;;3.20;91.90;;;;;;4954683;28;20069;-80
2021/12/04 14:05:23;;;;;;;9.07;5.45;;;3.20;91.90;;;;;;4978224;28;20034;-80
2021/12/04 14:07:55;;;;;;;7.30;5.18;;;3.10;91.90;;;;;;4958933;28;20112;-80
2021/12/04 14:10:26;;;;;;;7.25;4.32;;;3.10;91.90;;;;;;4962808;28;20045;-80
2021/12/04 14:12:51;;;;;;;7.70;4.90;;;3.20;92.00;;;;;;4966415;28;20041;-80
2021/12/04 14:15:19;;;;;;;6.75;4.80;;;3.10;91.90;;;;;;4969983;28;21039;-81
2021/12/04 14:17:45;;;;;;;7.22;4.90;;;3.20;92.00;;;;;;4982084;28;20125;-78
2021/12/04 14:20:14;;;;;;;7.90;4.65;;;3.10;91.90;;;;;;4981443;28;20475;-79
2021/12/04 14:22:47;;;;;;;6.97;4.88;;;3.10;91.90;;;;;;4935447;28;20065;-80
2021/12/04 14:25:12;;;;;;;7.45;4.43;;;3.10;91.90;;;;;;4970306;28;21532;-80
2021/12/04 14:27:38;;;;;;;6.25;4.20;;;3.10;91.90;;;;;;4999412;28;20435;-80
2021/12/04 14:30:16;;;;;;;7.03;4.32;;;3.10;91.90;;;;;;4967014;28;20085;-79
2021/12/04 14:32:43;;;;;;;7.40;4.50;;;3.10;92.00;;;;;;4978973;28;20058;-79
2021/12/04 14:35:14;;;;;;;7.15;4.80;;;3.10;91.90;;;;;;4975253;28;20038;-80
2021/12/04 14:37:43;;;;;;;7.15;5.15;;;3.10;92.00;;;;;;4979096;28;20368;-80
2021/12/04 14:40:23;;;;;;;6.43;4.50;;;3.10;92.00;;;;;;4970909;28;20041;-80
2021/12/04 14:42:49;;;;;;;7.63;4.90;;;3.10;92.00;;;;;;4967656;28;20655;-81
2021/12/04 14:45:21;;;;;;;6.60;4.95;;;3.10;92.00;;;;;;4987064;28;20038;-81
2021/12/04 14:48:03;;;;;;;6.40;4.30;;;3.10;92.00;;;;;;4966454;28;20038;-81
2021/12/04 14:50:31;;;;;;;6.28;4.25;;;3.10;92.00;;;;;;4988210;28;20060;-80
2021/12/04 14:53:03;;;;;;;4.65;3.83;;;3.10;92.00;;;;;;4968560;28;20060;-80
2021/12/04 14:55:33;;;;;;;4.53;3.47;;;3.10;92.00;;;;;;4976741;28;20553;-79
2021/12/04 14:58:04;;;;;;;4.38;3.40;;;3.00;92.00;;;;;;4981099;28;20038;-80
2021/12/04 15:00:32;;;;;;;5.38;3.90;;;3.00;92.00;;;;;;4958883;28;20130;-82
2021/12/04 15:03:02;;;;;;;5.00;3.50;;;3.00;92.00;;;;;;4971892;28;20030;-79
2021/12/04 15:05:32;;;;;;;5.53;3.88;;;3.00;92.30;;;;;;4982735;28;20114;-81
2021/12/04 15:08:05;;;;;;;4.45;3.30;;;3.00;92.00;;;;;;4973525;28;20116;-81
2021/12/04 15:10:31;;;;;;;4.90;3.42;;;3.00;92.00;;;;;;4980031;28;20054;-81
2021/12/04 15:12:58;;;;;;;5.20;3.92;;;3.00;92.00;;;;;;4978914;28;20471;-80
2021/12/04 15:15:27;;;;;;;6.28;3.67;;;3.00;92.00;;;;;;4975812;28;20042;-81
2021/12/04 15:17:54;;;;;;;5.35;3.58;;;3.00;92.10;;;;;;4958320;28;20036;-79
2021/12/04 15:20:27;;;;;;;4.30;3.05;;;3.00;92.00;;;;;;4953687;28;20042;-79
2021/12/04 15:22:57;;;;;;;4.15;3.53;;;3.00;92.00;;;;;;4961765;28;20038;-79
2021/12/04 15:25:25;;;;;;;5.68;3.60;;;3.10;92.10;;;;;;4978564;28;20115;-79
2021/12/04 15:27:50;;;;;;;4.72;3.72;;;3.00;92.10;;;;;;4975493;28;20030;-81
2021/12/04 15:30:17;;;;;;;7.00;3.53;;;3.00;92.10;;;;;;4963727;28;20113;-80
2021/12/04 15:32:43;;;;;;;6.05;3.90;;;3.00;92.10;;;;;;4952448;28;20282;-80
2021/12/04 15:35:38;;;;;;;11.32;6.75;;;3.00;92.10;;;;;;4954495;28;20043;-79
2021/12/04 15:38:09;;;;;;;9.77;5.38;;;3.00;92.10;;;;;;4984759;28;20115;-81
2021/12/04 15:40:54;;;;;;;7.78;5.00;;;3.00;92.10;;;;;;4952237;28;20980;-82
2021/12/04 15:43:58;;;;;;;11.77;7.07;;;3.00;92.10;;;;;;4989141;28;20038;-79
2021/12/04 15:54:07;;;;;;;8.60;4.82;;;3.00;92.10;;;;;;4994138;28;20037;-81
2021/12/04 15:56:37;;;;;;;16.35;8.70;;;3.00;92.10;;;;;;4981235;28;20056;-81
2021/12/04 15:59:05;;;;;;;22.00;10.02;;;3.00;92.10;;;;;;4986206;28;20038;-82
2021/12/04 16:01:31;;;;;;;17.75;8.13;;;3.00;92.10;;;;;;4962816;28;20040;-79